sensor_id;sensor_type;location;lat;lon;timestamp;pressure;altitude;pressure_sealevel;temperature;humidity
41062;BME280;26812;42.662;23.352;2023-09-30T00:02:25;95354.53;;;17.44;60.56
41062;BME280;26812;42.662;23.352;2023-09-30T00:04:51;95348.00;;;17.76;59.53
41062;BME280;26812;42.662;23.352;2023-09-30T00:07:17;95355.72;;;17.90;59.30
41062;BME280;26812;42.662;23.352;2023-09-30T00:09:43;95349.81;;;17.56;60.05
41062;BME280;26812;42.662;23.352;2023-09-30T00:12:08;95341.91;;;17.51;60.51
41062;BME280;26812;42.662;23.352;2023-09-30T00:14:34;95342.44;;;17.73;59.76
41062;BME280;26812;42.662;23.352;2023-09-30T00:16:59;95345.91;;;17.42;60.53
41062;BME280;26812;42.662;23.352;2023-09-30T00:19:25;95339.75;;;17.29;61.10
41062;BME280;26812;42.662;23.352;2023-09-30T00:21:51;95346.41;;;17.75;59.59
41062;BME280;26812;42.662;23.352;2023-09-30T00:24:16;95349.03;;;17.72;58.65
41062;BME280;26812;42.662;23.352;2023-09-30T00:26:42;95349.13;;;17.75;59.75
41062;BME280;26812;42.662;23.352;2023-09-30T00:29:07;95336.19;;;17.56;60.74
41062;BME280;26812;42.662;23.352;2023-09-30T00:31:33;95330.03;;;17.59;60.67
41062;BME280;26812;42.662;23.352;2023-09-30T00:33:58;95340.00;;;17.83;59.65
41062;BME280;26812;42.662;23.352;2023-09-30T00:36:24;95329.97;;;17.87;58.29
41062;BME280;26812;42.662;23.352;2023-09-30T00:38:50;95332.69;;;17.87;58.37
41062;BME280;26812;42.662;23.352;2023-09-30T00:41:15;95337.38;;;17.87;58.87
41062;BME280;26812;42.662;23.352;2023-09-30T00:43:41;95331.88;;;18.03;58.70
41062;BME280;26812;42.662;23.352;2023-09-30T00:48:42;95336.66;;;17.90;59.26
41062;BME280;26812;42.662;23.352;2023-09-30T00:51:08;95332.78;;;17.75;59.72
41062;BME280;26812;42.662;23.352;2023-09-30T00:53:33;95335.25;;;17.80;59.79
41062;BME280;26812;42.662;23.352;2023-09-30T00:56:00;95323.19;;;18.13;58.04
41062;BME280;26812;42.662;23.352;2023-09-30T00:58:26;95330.41;;;17.89;59.04
41062;BME280;26812;42.662;23.352;2023-09-30T01:00:56;95340.63;;;17.77;59.94
41062;BME280;26812;42.662;23.352;2023-09-30T01:03:22;95329.50;;;18.01;58.81
41062;BME280;26812;42.662;23.352;2023-09-30T01:05:49;95327.25;;;17.72;59.44
41062;BME280;26812;42.662;23.352;2023-09-30T01:08:15;95323.00;;;17.58;60.36
41062;BME280;26812;42.662;23.352;2023-09-30T01:10:41;95327.94;;;18.00;59.14
41062;BME280;26812;42.662;23.352;2023-09-30T01:13:07;95325.47;;;17.95;59.10
41062;BME280;26812;42.662;23.352;2023-09-30T01:15:32;95320.28;;;17.74;60.15
41062;BME280;26812;42.662;23.352;2023-09-30T01:17:58;95329.19;;;17.71;60.28
41062;BME280;26812;42.662;23.352;2023-09-30T01:20:23;95328.47;;;17.90;60.11
41062;BME280;26812;42.662;23.352;2023-09-30T01:22:49;95291.63;;;17.64;60.28
41062;BME280;26812;42.662;23.352;2023-09-30T01:25:14;95331.44;;;18.00;59.91
41062;BME280;26812;42.662;23.352;2023-09-30T01:27:40;95326.97;;;18.08;59.68
41062;BME280;26812;42.662;23.352;2023-09-30T01:30:06;95322.84;;;17.83;60.40
41062;BME280;26812;42.662;23.352;2023-09-30T01:32:31;95325.38;;;18.07;59.72
41062;BME280;26812;42.662;23.352;2023-09-30T01:34:57;95317.22;;;18.07;59.66
41062;BME280;26812;42.662;23.352;2023-09-30T01:37:22;95325.56;;;18.14;59.06
41062;BME280;26812;42.662;23.352;2023-09-30T01:39:47;95308.41;;;17.98;59.12
41062;BME280;26812;42.662;23.352;2023-09-30T01:42:15;95325.56;;;17.98;59.28
41062;BME280;26812;42.662;23.352;2023-09-30T01:44:41;95314.81;;;18.06;58.64
41062;BME280;26812;42.662;23.352;2023-09-30T01:47:06;95327.13;;;18.15;58.29
41062;BME280;26812;42.662;23.352;2023-09-30T01:49:31;95320.97;;;18.18;57.13
41062;BME280;26812;42.662;23.352;2023-09-30T01:51:57;95326.78;;;18.17;56.62
41062;BME280;26812;42.662;23.352;2023-09-30T01:54:23;95316.88;;;18.28;56.94
41062;BME280;26812;42.662;23.352;2023-09-30T01:56:48;95318.16;;;18.15;57.71
41062;BME280;26812;42.662;23.352;2023-09-30T01:59:15;95315.44;;;17.99;58.44
41062;BME280;26812;42.662;23.352;2023-09-30T02:01:40;95278.34;;;17.94;57.75
41062;BME280;26812;42.662;23.352;2023-09-30T02:04:05;95319.91;;;18.23;56.86
41062;BME280;26812;42.662;23.352;2023-09-30T02:06:31;95311.16;;;17.82;58.56
41062;BME280;26812;42.662;23.352;2023-09-30T02:08:57;95313.16;;;18.01;58.47
41062;BME280;26812;42.662;23.352;2023-09-30T02:11:22;95310.53;;;17.89;58.76
41062;BME280;26812;42.662;23.352;2023-09-30T02:13:48;95308.78;;;17.81;59.39
41062;BME280;26812;42.662;23.352;2023-09-30T02:16:20;95289.59;;;17.61;59.50
41062;BME280;26812;42.662;23.352;2023-09-30T02:18:45;95257.59;;;17.43;59.69
41062;BME280;26812;42.662;23.352;2023-09-30T02:21:11;95315.56;;;17.71;59.77
41062;BME280;26812;42.662;23.352;2023-09-30T02:23:36;95324.94;;;17.74;59.59
41062;BME280;26812;42.662;23.352;2023-09-30T02:26:02;95314.75;;;17.71;59.46
41062;BME280;26812;42.662;23.352;2023-09-30T02:28:28;95320.13;;;17.67;59.30
41062;BME280;26812;42.662;23.352;2023-09-30T02:30:55;95317.72;;;17.65;58.92
41062;BME280;26812;42.662;23.352;2023-09-30T02:33:20;95320.00;;;17.63;58.81
41062;BME280;26812;42.662;23.352;2023-09-30T02:35:45;95295.75;;;17.58;58.68
41062;BME280;26812;42.662;23.352;2023-09-30T02:38:12;95323.47;;;17.76;58.54
41062;BME280;26812;42.662;23.352;2023-09-30T02:40:39;95320.28;;;17.74;58.04
41062;BME280;26812;42.662;23.352;2023-09-30T02:43:05;95316.00;;;17.89;57.82
41062;BME280;26812;42.662;23.352;2023-09-30T02:45:31;95314.31;;;17.68;58.77
41062;BME280;26812;42.662;23.352;2023-09-30T02:47:56;95325.31;;;17.88;57.21
41062;BME280;26812;42.662;23.352;2023-09-30T02:50:21;95311.31;;;17.74;57.60
41062;BME280;26812;42.662;23.352;2023-09-30T02:52:47;95307.44;;;17.43;58.46
41062;BME280;26812;42.662;23.352;2023-09-30T02:55:12;95308.09;;;17.08;59.37
41062;BME280;26812;42.662;23.352;2023-09-30T02:57:38;95315.16;;;17.25;59.48
41062;BME280;26812;42.662;23.352;2023-09-30T03:00:05;95299.41;;;16.63;61.43
41062;BME280;26812;42.662;23.352;2023-09-30T03:02:49;95315.97;;;16.70;61.97
41062;BME280;26812;42.662;23.352;2023-09-30T03:05:15;95316.94;;;16.90;60.87
41062;BME280;26812;42.662;23.352;2023-09-30T03:07:41;95313.69;;;16.72;61.23
41062;BME280;26812;42.662;23.352;2023-09-30T03:10:07;95312.31;;;16.78;61.74
41062;BME280;26812;42.662;23.352;2023-09-30T03:12:34;95312.81;;;16.96;61.25
41062;BME280;26812;42.662;23.352;2023-09-30T03:15:00;95322.16;;;16.83;61.89
41062;BME280;26812;42.662;23.352;2023-09-30T03:17:29;95312.63;;;16.89;61.60
41062;BME280;26812;42.662;23.352;2023-09-30T03:19:55;95306.25;;;16.57;62.60
41062;BME280;26812;42.662;23.352;2023-09-30T03:22:22;95323.56;;;16.64;62.54
41062;BME280;26812;42.662;23.352;2023-09-30T03:24:48;95319.56;;;16.86;62.41
41062;BME280;26812;42.662;23.352;2023-09-30T03:27:13;95320.47;;;17.06;61.56
41062;BME280;26812;42.662;23.352;2023-09-30T03:29:40;95319.72;;;17.21;60.95
41062;BME280;26812;42.662;23.352;2023-09-30T03:32:06;95315.28;;;17.01;61.09
41062;BME280;26812;42.662;23.352;2023-09-30T03:34:33;95326.84;;;16.98;61.28
41062;BME280;26812;42.662;23.352;2023-09-30T03:37:02;95314.09;;;16.86;60.91
41062;BME280;26812;42.662;23.352;2023-09-30T03:39:27;95305.81;;;16.55;60.93
41062;BME280;26812;42.662;23.352;2023-09-30T03:41:56;95307.50;;;16.47;61.67
41062;BME280;26812;42.662;23.352;2023-09-30T03:44:23;95312.56;;;16.61;61.14
41062;BME280;26812;42.662;23.352;2023-09-30T03:46:50;95315.75;;;16.51;61.45
41062;BME280;26812;42.662;23.352;2023-09-30T03:49:15;95315.31;;;16.61;60.66
41062;BME280;26812;42.662;23.352;2023-09-30T03:51:41;95304.50;;;16.76;59.23
41062;BME280;26812;42.662;23.352;2023-09-30T03:54:06;95300.81;;;16.44;60.26
41062;BME280;26812;42.662;23.352;2023-09-30T03:56:33;95312.47;;;16.57;60.29
41062;BME280;26812;42.662;23.352;2023-09-30T03:58:59;95311.09;;;16.63;59.70
41062;BME280;26812;42.662;23.352;2023-09-30T04:01:24;95316.53;;;16.63;60.24
41062;BME280;26812;42.662;23.352;2023-09-30T04:03:51;95302.66;;;16.40;60.45
41062;BME280;26812;42.662;23.352;2023-09-30T04:06:19;95311.59;;;16.53;60.25
41062;BME280;26812;42.662;23.352;2023-09-30T04:08:45;95319.03;;;16.68;59.97
41062;BME280;26812;42.662;23.352;2023-09-30T04:11:10;95320.00;;;16.36;61.10
41062;BME280;26812;42.662;23.352;2023-09-30T04:13:42;95302.50;;;16.61;59.89
41062;BME280;26812;42.662;23.352;2023-09-30T04:16:07;95320.47;;;16.78;59.57
41062;BME280;26812;42.662;23.352;2023-09-30T04:18:33;95313.16;;;16.66;59.50
41062;BME280;26812;42.662;23.352;2023-09-30T04:20:58;95327.03;;;16.77;59.32
41062;BME280;26812;42.662;23.352;2023-09-30T04:23:25;95325.75;;;16.46;60.50
41062;BME280;26812;42.662;23.352;2023-09-30T04:25:50;95334.34;;;16.61;59.23
41062;BME280;26812;42.662;23.352;2023-09-30T04:28:16;95331.91;;;16.31;58.05
41062;BME280;26812;42.662;23.352;2023-09-30T04:30:47;95339.03;;;16.36;58.06
41062;BME280;26812;42.662;23.352;2023-09-30T04:33:13;95327.47;;;16.39;58.14
41062;BME280;26812;42.662;23.352;2023-09-30T04:35:39;95339.34;;;16.46;58.60
41062;BME280;26812;42.662;23.352;2023-09-30T04:38:04;95342.69;;;16.28;58.23
41062;BME280;26812;42.662;23.352;2023-09-30T04:40:30;95348.63;;;16.45;58.04
41062;BME280;26812;42.662;23.352;2023-09-30T04:42:55;95343.59;;;16.32;58.41
41062;BME280;26812;42.662;23.352;2023-09-30T04:45:24;95339.63;;;16.29;58.78
41062;BME280;26812;42.662;23.352;2023-09-30T04:47:54;95346.25;;;16.44;57.73
41062;BME280;26812;42.662;23.352;2023-09-30T04:50:21;95345.34;;;16.52;56.57
41062;BME280;26812;42.662;23.352;2023-09-30T04:52:48;95331.31;;;16.38;56.57
41062;BME280;26812;42.662;23.352;2023-09-30T04:55:14;95347.53;;;16.34;56.86
41062;BME280;26812;42.662;23.352;2023-09-30T04:57:48;95350.94;;;16.31;56.37
41062;BME280;26812;42.662;23.352;2023-09-30T05:00:18;95350.16;;;16.31;56.59
41062;BME280;26812;42.662;23.352;2023-09-30T05:02:45;95348.91;;;16.16;57.38
41062;BME280;26812;42.662;23.352;2023-09-30T05:05:10;95350.94;;;16.19;57.68
41062;BME280;26812;42.662;23.352;2023-09-30T05:07:36;95353.63;;;16.43;57.25
41062;BME280;26812;42.662;23.352;2023-09-30T05:10:03;95358.22;;;16.27;57.73
41062;BME280;26812;42.662;23.352;2023-09-30T05:12:35;95349.03;;;16.07;58.31
41062;BME280;26812;42.662;23.352;2023-09-30T05:15:01;95370.88;;;16.11;59.47
41062;BME280;26812;42.662;23.352;2023-09-30T05:17:27;95357.41;;;16.14;58.27
41062;BME280;26812;42.662;23.352;2023-09-30T05:19:53;95365.22;;;16.16;58.83
41062;BME280;26812;42.662;23.352;2023-09-30T05:22:19;95359.69;;;16.12;59.45
41062;BME280;26812;42.662;23.352;2023-09-30T05:24:49;95361.50;;;15.84;60.41
41062;BME280;26812;42.662;23.352;2023-09-30T05:27:14;95360.59;;;16.04;59.95
41062;BME280;26812;42.662;23.352;2023-09-30T05:29:39;95355.25;;;16.32;59.27
41062;BME280;26812;42.662;23.352;2023-09-30T05:32:05;95353.22;;;16.05;60.38
41062;BME280;26812;42.662;23.352;2023-09-30T05:34:32;95354.91;;;16.22;60.28
41062;BME280;26812;42.662;23.352;2023-09-30T05:36:58;95345.97;;;16.09;60.61
41062;BME280;26812;42.662;23.352;2023-09-30T05:39:23;95352.38;;;16.53;59.72
41062;BME280;26812;42.662;23.352;2023-09-30T05:41:50;95359.44;;;16.82;58.87
41062;BME280;26812;42.662;23.352;2023-09-30T05:44:16;95367.69;;;16.98;58.31
41062;BME280;26812;42.662;23.352;2023-09-30T05:46:41;95364.56;;;16.84;58.09
41062;BME280;26812;42.662;23.352;2023-09-30T05:49:09;95377.09;;;17.44;57.36
41062;BME280;26812;42.662;23.352;2023-09-30T05:51:41;95373.91;;;17.26;57.77
41062;BME280;26812;42.662;23.352;2023-09-30T05:54:07;95375.16;;;17.29;57.87
41062;BME280;26812;42.662;23.352;2023-09-30T05:56:38;95378.44;;;17.50;57.46
41062;BME280;26812;42.662;23.352;2023-09-30T05:59:06;95371.78;;;17.63;56.75
41062;BME280;26812;42.662;23.352;2023-09-30T06:01:32;95389.09;;;17.55;57.33
41062;BME280;26812;42.662;23.352;2023-09-30T06:03:58;95381.03;;;17.75;56.29
41062;BME280;26812;42.662;23.352;2023-09-30T06:06:25;95363.38;;;17.25;57.94
41062;BME280;26812;42.662;23.352;2023-09-30T06:08:51;95396.72;;;17.50;57.92
41062;BME280;26812;42.662;23.352;2023-09-30T06:11:20;95390.13;;;17.79;56.74
41062;BME280;26812;42.662;23.352;2023-09-30T06:13:50;95397.28;;;17.71;56.72
41062;BME280;26812;42.662;23.352;2023-09-30T06:16:16;95387.81;;;18.12;55.34
41062;BME280;26812;42.662;23.352;2023-09-30T06:18:41;95382.81;;;17.98;55.98
41062;BME280;26812;42.662;23.352;2023-09-30T06:21:07;95388.75;;;18.36;54.67
41062;BME280;26812;42.662;23.352;2023-09-30T06:23:35;95400.59;;;18.08;55.93
41062;BME280;26812;42.662;23.352;2023-09-30T06:26:00;95405.59;;;18.06;56.04
41062;BME280;26812;42.662;23.352;2023-09-30T06:28:28;95404.59;;;18.46;55.11
41062;BME280;26812;42.662;23.352;2023-09-30T06:30:56;95402.25;;;18.79;54.18
41062;BME280;26812;42.662;23.352;2023-09-30T06:33:22;95405.72;;;19.15;51.74
41062;BME280;26812;42.662;23.352;2023-09-30T06:35:47;95402.75;;;18.85;52.69
41062;BME280;26812;42.662;23.352;2023-09-30T06:38:17;95394.00;;;19.34;51.13
41062;BME280;26812;42.662;23.352;2023-09-30T06:40:43;95403.06;;;19.57;50.65
41062;BME280;26812;42.662;23.352;2023-09-30T06:43:08;95396.47;;;19.81;50.49
41062;BME280;26812;42.662;23.352;2023-09-30T06:45:34;95404.41;;;20.12;49.67
41062;BME280;26812;42.662;23.352;2023-09-30T06:48:04;95393.13;;;20.14;49.52
41062;BME280;26812;42.662;23.352;2023-09-30T06:50:30;95401.38;;;20.40;48.84
41062;BME280;26812;42.662;23.352;2023-09-30T06:52:56;95386.09;;;20.62;47.59
41062;BME280;26812;42.662;23.352;2023-09-30T06:55:22;95391.28;;;20.44;48.19
41062;BME280;26812;42.662;23.352;2023-09-30T06:57:47;95398.13;;;20.58;48.30
41062;BME280;26812;42.662;23.352;2023-09-30T07:00:14;95411.22;;;21.28;46.64
41062;BME280;26812;42.662;23.352;2023-09-30T07:02:40;95408.47;;;21.61;45.27
41062;BME280;26812;42.662;23.352;2023-09-30T07:05:09;95412.91;;;22.07;45.20
41062;BME280;26812;42.662;23.352;2023-09-30T07:07:36;95423.13;;;23.19;42.21
41062;BME280;26812;42.662;23.352;2023-09-30T07:10:02;95418.72;;;24.02;39.50
41062;BME280;26812;42.662;23.352;2023-09-30T07:12:29;95406.53;;;24.88;37.40
41062;BME280;26812;42.662;23.352;2023-09-30T07:14:56;95421.19;;;25.87;35.24
41062;BME280;26812;42.662;23.352;2023-09-30T07:17:22;95420.50;;;27.24;34.03
41062;BME280;26812;42.662;23.352;2023-09-30T07:19:47;95419.66;;;28.72;30.39
41062;BME280;26812;42.662;23.352;2023-09-30T07:22:13;95420.50;;;27.92;28.93
41062;BME280;26812;42.662;23.352;2023-09-30T07:24:39;95422.03;;;26.87;30.64
41062;BME280;26812;42.662;23.352;2023-09-30T07:27:04;95409.88;;;25.60;32.96
41062;BME280;26812;42.662;23.352;2023-09-30T07:29:37;95420.97;;;25.49;33.60
41062;BME280;26812;42.662;23.352;2023-09-30T07:32:09;95415.50;;;25.31;33.22
41062;BME280;26812;42.662;23.352;2023-09-30T07:34:35;95415.19;;;24.97;33.84
41062;BME280;26812;42.662;23.352;2023-09-30T07:37:00;95420.31;;;25.13;33.75
41062;BME280;26812;42.662;23.352;2023-09-30T07:39:26;95407.59;;;25.37;33.78
41062;BME280;26812;42.662;23.352;2023-09-30T07:41:51;95403.16;;;25.61;33.84
41062;BME280;26812;42.662;23.352;2023-09-30T07:44:16;95415.66;;;25.90;33.72
41062;BME280;26812;42.662;23.352;2023-09-30T07:46:42;95419.81;;;26.20;33.27
41062;BME280;26812;42.662;23.352;2023-09-30T07:49:11;95397.78;;;26.09;31.98
41062;BME280;26812;42.662;23.352;2023-09-30T07:51:36;95414.41;;;25.98;32.81
41062;BME280;26812;42.662;23.352;2023-09-30T07:54:03;95418.22;;;26.19;33.04
41062;BME280;26812;42.662;23.352;2023-09-30T07:56:28;95410.44;;;26.58;32.19
41062;BME280;26812;42.662;23.352;2023-09-30T07:58:54;95405.63;;;26.18;31.68
41062;BME280;26812;42.662;23.352;2023-09-30T08:01:19;95418.75;;;24.80;32.88
41062;BME280;26812;42.662;23.352;2023-09-30T08:03:45;95417.94;;;24.94;33.05
41062;BME280;26812;42.662;23.352;2023-09-30T08:06:10;95421.47;;;25.08;33.26
41062;BME280;26812;42.662;23.352;2023-09-30T08:08:36;95417.06;;;25.32;33.15
41062;BME280;26812;42.662;23.352;2023-09-30T08:11:01;95412.75;;;25.28;33.61
41062;BME280;26812;42.662;23.352;2023-09-30T08:13:27;95395.34;;;25.49;31.81
41062;BME280;26812;42.662;23.352;2023-09-30T08:15:54;95425.41;;;25.15;32.67
41062;BME280;26812;42.662;23.352;2023-09-30T08:18:19;95417.13;;;25.22;32.54
41062;BME280;26812;42.662;23.352;2023-09-30T08:20:45;95423.09;;;24.31;33.75
41062;BME280;26812;42.662;23.352;2023-09-30T08:23:10;95413.22;;;23.98;34.56
41062;BME280;26812;42.662;23.352;2023-09-30T08:25:37;95390.41;;;23.91;33.31
41062;BME280;26812;42.662;23.352;2023-09-30T08:28:04;95420.75;;;24.44;33.04
41062;BME280;26812;42.662;23.352;2023-09-30T08:30:36;95419.91;;;24.79;32.22
41062;BME280;26812;42.662;23.352;2023-09-30T08:33:02;95411.66;;;24.86;32.43
41062;BME280;26812;42.662;23.352;2023-09-30T08:35:36;95417.16;;;25.15;32.67
41062;BME280;26812;42.662;23.352;2023-09-30T08:38:03;95408.09;;;25.14;32.47
41062;BME280;26812;42.662;23.352;2023-09-30T08:40:29;95408.13;;;24.68;33.32
41062;BME280;26812;42.662;23.352;2023-09-30T08:42:54;95397.50;;;24.88;32.55
41062;BME280;26812;42.662;23.352;2023-09-30T08:45:20;95413.97;;;25.09;33.04
41062;BME280;26812;42.662;23.352;2023-09-30T08:47:46;95400.03;;;25.59;31.19
41062;BME280;26812;42.662;23.352;2023-09-30T08:50:12;95405.72;;;25.09;31.90
41062;BME280;26812;42.662;23.352;2023-09-30T08:52:40;95410.78;;;25.28;32.23
41062;BME280;26812;42.662;23.352;2023-09-30T08:55:07;95405.16;;;25.57;32.23
41062;BME280;26812;42.662;23.352;2023-09-30T08:57:37;95405.78;;;25.93;31.67
41062;BME280;26812;42.662;23.352;2023-09-30T09:00:05;95370.00;;;26.30;30.62
41062;BME280;26812;42.662;23.352;2023-09-30T09:02:34;95394.56;;;27.11;29.12
41062;BME280;26812;42.662;23.352;2023-09-30T09:04:59;95387.38;;;27.17;29.04
41062;BME280;26812;42.662;23.352;2023-09-30T09:07:25;95394.47;;;27.56;28.89
41062;BME280;26812;42.662;23.352;2023-09-30T09:10:04;95364.31;;;27.65;27.82
41062;BME280;26812;42.662;23.352;2023-09-30T09:12:33;95394.66;;;27.72;27.42
41062;BME280;26812;42.662;23.352;2023-09-30T09:14:58;95389.53;;;27.70;26.43
41062;BME280;26812;42.662;23.352;2023-09-30T09:17:43;95395.63;;;27.58;26.52
41062;BME280;26812;42.662;23.352;2023-09-30T09:20:17;95398.41;;;27.20;25.15
41062;BME280;26812;42.662;23.352;2023-09-30T09:22:47;95395.59;;;26.86;25.43
41062;BME280;26812;42.662;23.352;2023-09-30T09:25:13;95393.50;;;27.01;25.66
41062;BME280;26812;42.662;23.352;2023-09-30T09:27:39;95390.38;;;27.33;25.21
41062;BME280;26812;42.662;23.352;2023-09-30T09:30:26;95397.84;;;27.36;25.16
41062;BME280;26812;42.662;23.352;2023-09-30T09:35:28;95385.13;;;27.08;26.26
41062;BME280;26812;42.662;23.352;2023-09-30T09:37:56;95383.13;;;27.43;27.05
41062;BME280;26812;42.662;23.352;2023-09-30T09:40:23;95392.44;;;27.60;26.54
41062;BME280;26812;42.662;23.352;2023-09-30T09:42:51;95353.66;;;27.63;25.09
41062;BME280;26812;42.662;23.352;2023-09-30T09:45:21;95376.81;;;27.42;24.96
41062;BME280;26812;42.662;23.352;2023-09-30T09:47:48;95373.47;;;26.86;27.86
41062;BME280;26812;42.662;23.352;2023-09-30T09:50:14;95367.19;;;26.82;27.76
41062;BME280;26812;42.662;23.352;2023-09-30T09:52:41;95365.78;;;26.67;28.31
41062;BME280;26812;42.662;23.352;2023-09-30T09:55:10;95371.22;;;26.74;26.98
41062;BME280;26812;42.662;23.352;2023-09-30T09:57:36;95377.25;;;26.62;25.81
41062;BME280;26812;42.662;23.352;2023-09-30T10:00:03;95369.75;;;26.63;25.81
41062;BME280;26812;42.662;23.352;2023-09-30T10:02:32;95362.00;;;26.88;25.76
41062;BME280;26812;42.662;23.352;2023-09-30T10:04:58;95346.16;;;26.92;26.18
41062;BME280;26812;42.662;23.352;2023-09-30T10:07:32;95360.88;;;26.82;27.36
41062;BME280;26812;42.662;23.352;2023-09-30T10:10:00;95353.22;;;27.00;25.85
41062;BME280;26812;42.662;23.352;2023-09-30T10:12:26;95350.34;;;27.11;25.32
41062;BME280;26812;42.662;23.352;2023-09-30T10:14:52;95350.69;;;27.13;26.79
41062;BME280;26812;42.662;23.352;2023-09-30T10:17:18;95347.28;;;27.02;25.71
41062;BME280;26812;42.662;23.352;2023-09-30T10:20:06;95342.19;;;26.55;25.58
41062;BME280;26812;42.662;23.352;2023-09-30T10:22:32;95337.38;;;26.63;25.61
41062;BME280;26812;42.662;23.352;2023-09-30T10:24:58;95346.94;;;26.92;25.08
41062;BME280;26812;42.662;23.352;2023-09-30T10:30:06;95342.16;;;27.34;25.44
41062;BME280;26812;42.662;23.352;2023-09-30T10:37:42;95327.28;;;27.21;23.97
41062;BME280;26812;42.662;23.352;2023-09-30T10:40:08;95332.22;;;27.06;24.27
41062;BME280;26812;42.662;23.352;2023-09-30T10:42:47;95324.44;;;26.94;23.91
41062;BME280;26812;42.662;23.352;2023-09-30T10:51:16;95313.56;;;27.14;24.74
41062;BME280;26812;42.662;23.352;2023-09-30T10:53:51;95318.50;;;27.30;24.53
41062;BME280;26812;42.662;23.352;2023-09-30T10:56:18;95318.31;;;27.44;23.62
41062;BME280;26812;42.662;23.352;2023-09-30T10:58:49;95317.94;;;27.42;23.06
41062;BME280;26812;42.662;23.352;2023-09-30T11:01:19;95322.81;;;27.61;23.02
41062;BME280;26812;42.662;23.352;2023-09-30T11:03:46;95314.59;;;27.54;23.04
41062;BME280;26812;42.662;23.352;2023-09-30T11:06:16;95294.16;;;27.75;22.82
41062;BME280;26812;42.662;23.352;2023-09-30T11:08:56;95313.81;;;27.53;22.57
41062;BME280;26812;42.662;23.352;2023-09-30T11:11:41;95307.28;;;27.40;23.07
41062;BME280;26812;42.662;23.352;2023-09-30T11:14:26;95298.13;;;27.74;23.05
41062;BME280;26812;42.662;23.352;2023-09-30T11:16:55;95303.09;;;27.59;22.89
41062;BME280;26812;42.662;23.352;2023-09-30T11:19:22;95296.94;;;27.75;22.81
41062;BME280;26812;42.662;23.352;2023-09-30T11:21:50;95295.25;;;27.81;23.54
41062;BME280;26812;42.662;23.352;2023-09-30T11:24:16;95287.09;;;27.97;23.21
41062;BME280;26812;42.662;23.352;2023-09-30T11:26:42;95304.44;;;28.28;22.71
41062;BME280;26812;42.662;23.352;2023-09-30T11:31:40;95282.97;;;27.55;22.70
41062;BME280;26812;42.662;23.352;2023-09-30T11:34:06;95289.47;;;27.72;23.64
41062;BME280;26812;42.662;23.352;2023-09-30T11:36:36;95285.41;;;28.03;22.90
41062;BME280;26812;42.662;23.352;2023-09-30T11:39:02;95287.75;;;28.32;23.04
41062;BME280;26812;42.662;23.352;2023-09-30T11:41:40;95284.47;;;28.37;22.46
41062;BME280;26812;42.662;23.352;2023-09-30T11:44:12;95295.16;;;28.38;22.53
41062;BME280;26812;42.662;23.352;2023-09-30T11:47:00;95291.09;;;28.20;23.38
41062;BME280;26812;42.662;23.352;2023-09-30T11:49:37;95280.66;;;28.04;23.77
41062;BME280;26812;42.662;23.352;2023-09-30T11:52:07;95278.78;;;28.24;23.65
41062;BME280;26812;42.662;23.352;2023-09-30T11:54:35;95279.28;;;28.15;23.79
41062;BME280;26812;42.662;23.352;2023-09-30T11:57:03;95275.16;;;28.51;23.28
41062;BME280;26812;42.662;23.352;2023-09-30T11:59:29;95271.63;;;28.47;22.88
41062;BME280;26812;42.662;23.352;2023-09-30T12:01:56;95259.31;;;28.28;22.85
41062;BME280;26812;42.662;23.352;2023-09-30T12:04:21;95254.47;;;28.08;22.82
41062;BME280;26812;42.662;23.352;2023-09-30T12:06:47;95253.75;;;28.04;23.48
41062;BME280;26812;42.662;23.352;2023-09-30T12:09:16;95256.34;;;27.92;23.53
41062;BME280;26812;42.662;23.352;2023-09-30T12:11:53;95248.94;;;28.08;23.47
41062;BME280;26812;42.662;23.352;2023-09-30T12:14:22;95255.22;;;28.36;23.23
41062;BME280;26812;42.662;23.352;2023-09-30T12:16:47;95249.84;;;28.49;22.88
41062;BME280;26812;42.662;23.352;2023-09-30T12:19:14;95243.91;;;28.47;22.66
41062;BME280;26812;42.662;23.352;2023-09-30T12:21:41;95243.44;;;28.71;22.38
41062;BME280;26812;42.662;23.352;2023-09-30T12:24:07;95240.97;;;28.57;22.75
41062;BME280;26812;42.662;23.352;2023-09-30T12:26:35;95246.16;;;28.08;22.93
41062;BME280;26812;42.662;23.352;2023-09-30T12:29:01;95241.13;;;27.49;23.81
41062;BME280;26812;42.662;23.352;2023-09-30T12:31:26;95237.13;;;27.81;23.13
41062;BME280;26812;42.662;23.352;2023-09-30T12:33:51;95219.91;;;27.70;22.86
41062;BME280;26812;42.662;23.352;2023-09-30T12:36:18;95231.38;;;27.95;22.86
41062;BME280;26812;42.662;23.352;2023-09-30T12:38:43;95235.97;;;27.78;22.91
41062;BME280;26812;42.662;23.352;2023-09-30T12:41:09;95222.72;;;27.39;23.58
41062;BME280;26812;42.662;23.352;2023-09-30T12:43:35;95228.59;;;27.95;23.52
41062;BME280;26812;42.662;23.352;2023-09-30T12:46:00;95233.09;;;28.09;23.49
41062;BME280;26812;42.662;23.352;2023-09-30T12:48:26;95221.66;;;28.07;23.13
41062;BME280;26812;42.662;23.352;2023-09-30T12:50:51;95217.81;;;28.01;22.34
41062;BME280;26812;42.662;23.352;2023-09-30T12:53:17;95211.56;;;27.97;22.70
41062;BME280;26812;42.662;23.352;2023-09-30T12:55:42;95220.75;;;27.67;23.40
41062;BME280;26812;42.662;23.352;2023-09-30T12:58:08;95213.00;;;27.54;23.42
41062;BME280;26812;42.662;23.352;2023-09-30T13:00:34;95216.50;;;27.59;23.60
41062;BME280;26812;42.662;23.352;2023-09-30T13:03:01;95209.38;;;27.84;23.61
41062;BME280;26812;42.662;23.352;2023-09-30T13:05:27;95198.78;;;28.03;23.92
41062;BME280;26812;42.662;23.352;2023-09-30T13:07:54;95209.88;;;28.03;23.25
41062;BME280;26812;42.662;23.352;2023-09-30T13:10:20;95194.47;;;28.02;23.32
41062;BME280;26812;42.662;23.352;2023-09-30T13:12:45;95207.25;;;28.15;22.48